sensor_id;sensor_type;location;lat;lon;timestamp;pressure;altitude;pressure_sealevel;temperature;humidity
11830;BME280;5972;42.134;24.718;2022-08-02T00:02:04;99247.47;;;25.61;53.25
11830;BME280;5972;42.134;24.718;2022-08-02T00:04:31;99245.84;;;25.51;53.74
11830;BME280;5972;42.134;24.718;2022-08-02T00:06:58;99252.75;;;25.46;54.18
11830;BME280;5972;42.134;24.718;2022-08-02T00:09:26;99247.63;;;25.45;53.97
11830;BME280;5972;42.134;24.718;2022-08-02T00:11:53;99261.16;;;25.43;54.21
11830;BME280;5972;42.134;24.718;2022-08-02T00:14:20;99255.66;;;25.30;54.62
11830;BME280;5972;42.134;24.718;2022-08-02T00:16:47;99248.84;;;25.22;54.93
11830;BME280;5972;42.134;24.718;2022-08-02T00:19:14;99267.31;;;25.25;55.47
11830;BME280;5972;42.134;24.718;2022-08-02T00:21:41;99256.03;;;25.19;55.48
11830;BME280;5972;42.134;24.718;2022-08-02T00:24:08;99255.94;;;25.23;55.81
11830;BME280;5972;42.134;24.718;2022-08-02T00:26:36;99242.47;;;25.12;56.17
11830;BME280;5972;42.134;24.718;2022-08-02T00:29:03;99256.63;;;25.14;56.45
11830;BME280;5972;42.134;24.718;2022-08-02T00:31:30;99255.63;;;25.08;56.79
11830;BME280;5972;42.134;24.718;2022-08-02T00:33:57;99250.56;;;25.07;56.81
11830;BME280;5972;42.134;24.718;2022-08-02T00:36:24;99247.84;;;24.94;57.21
11830;BME280;5972;42.134;24.718;2022-08-02T00:38:50;99260.97;;;25.03;57.50
11830;BME280;5972;42.134;24.718;2022-08-02T00:41:19;99250.03;;;24.99;57.52
11830;BME280;5972;42.134;24.718;2022-08-02T00:43:49;99251.69;;;24.97;58.16
11830;BME280;5972;42.134;24.718;2022-08-02T00:46:17;99252.25;;;24.92;58.21
11830;BME280;5972;42.134;24.718;2022-08-02T00:48:45;99253.56;;;24.87;58.34
11830;BME280;5972;42.134;24.718;2022-08-02T00:51:12;99254.78;;;24.86;58.59
11830;BME280;5972;42.134;24.718;2022-08-02T00:53:39;99255.03;;;24.79;59.29
11830;BME280;5972;42.134;24.718;2022-08-02T00:56:07;99248.97;;;24.71;60.40
11830;BME280;5972;42.134;24.718;2022-08-02T00:58:35;99249.09;;;24.68;60.51
11830;BME280;5972;42.134;24.718;2022-08-02T01:01:03;99250.41;;;24.63;60.68
11830;BME280;5972;42.134;24.718;2022-08-02T01:03:30;99229.66;;;24.46;61.07
11830;BME280;5972;42.134;24.718;2022-08-02T01:05:56;99253.53;;;24.53;61.55
11830;BME280;5972;42.134;24.718;2022-08-02T01:08:23;99246.56;;;24.48;61.08
11830;BME280;5972;42.134;24.718;2022-08-02T01:10:50;99241.72;;;24.39;61.49
11830;BME280;5972;42.134;24.718;2022-08-02T01:13:17;99235.41;;;24.39;61.35
11830;BME280;5972;42.134;24.718;2022-08-02T01:15:48;99242.50;;;24.40;60.80
11830;BME280;5972;42.134;24.718;2022-08-02T01:18:23;99237.59;;;24.44;60.68
11830;BME280;5972;42.134;24.718;2022-08-02T01:21:10;99239.72;;;24.40;61.09
11830;BME280;5972;42.134;24.718;2022-08-02T01:23:55;99232.28;;;24.37;61.00
11830;BME280;5972;42.134;24.718;2022-08-02T01:26:36;99238.59;;;24.37;61.12
11830;BME280;5972;42.134;24.718;2022-08-02T01:29:12;99229.09;;;24.26;61.58
11830;BME280;5972;42.134;24.718;2022-08-02T01:31:43;99230.44;;;24.21;62.45
11830;BME280;5972;42.134;24.718;2022-08-02T01:34:18;99235.06;;;24.12;62.47
11830;BME280;5972;42.134;24.718;2022-08-02T01:36:51;99237.91;;;24.08;63.85
11830;BME280;5972;42.134;24.718;2022-08-02T01:39:24;99241.00;;;24.10;64.21
11830;BME280;5972;42.134;24.718;2022-08-02T01:41:53;99232.28;;;23.99;64.76
11830;BME280;5972;42.134;24.718;2022-08-02T01:44:25;99218.66;;;23.92;65.28
11830;BME280;5972;42.134;24.718;2022-08-02T01:46:57;99224.09;;;23.95;65.53
11830;BME280;5972;42.134;24.718;2022-08-02T01:49:26;99209.69;;;23.75;65.75
11830;BME280;5972;42.134;24.718;2022-08-02T01:51:56;99221.31;;;23.83;65.33
11830;BME280;5972;42.134;24.718;2022-08-02T01:54:42;99220.66;;;23.79;65.80
11830;BME280;5972;42.134;24.718;2022-08-02T01:57:12;99217.66;;;23.73;65.42
11830;BME280;5972;42.134;24.718;2022-08-02T01:59:43;99211.22;;;23.63;65.70
11830;BME280;5972;42.134;24.718;2022-08-02T02:02:13;99225.19;;;23.73;65.10
11830;BME280;5972;42.134;24.718;2022-08-02T02:04:41;99218.22;;;23.68;64.22
11830;BME280;5972;42.134;24.718;2022-08-02T02:07:11;99217.56;;;23.77;63.41
11830;BME280;5972;42.134;24.718;2022-08-02T02:09:40;99212.03;;;23.77;62.82
11830;BME280;5972;42.134;24.718;2022-08-02T02:12:11;99204.94;;;23.76;63.20
11830;BME280;5972;42.134;24.718;2022-08-02T02:14:40;99211.91;;;23.80;63.11
11830;BME280;5972;42.134;24.718;2022-08-02T02:17:09;99215.13;;;23.79;63.29
11830;BME280;5972;42.134;24.718;2022-08-02T02:19:38;99209.59;;;23.79;63.38
11830;BME280;5972;42.134;24.718;2022-08-02T02:22:05;99214.44;;;23.75;63.92
11830;BME280;5972;42.134;24.718;2022-08-02T02:24:32;99218.44;;;23.74;64.49
11830;BME280;5972;42.134;24.718;2022-08-02T02:27:00;99215.00;;;23.70;64.80
11830;BME280;5972;42.134;24.718;2022-08-02T02:29:29;99222.19;;;23.67;65.29
11830;BME280;5972;42.134;24.718;2022-08-02T02:31:59;99200.41;;;23.56;65.35
11830;BME280;5972;42.134;24.718;2022-08-02T02:34:28;99217.75;;;23.70;64.61
11830;BME280;5972;42.134;24.718;2022-08-02T02:36:59;99213.97;;;23.63;65.07
11830;BME280;5972;42.134;24.718;2022-08-02T02:39:27;99220.63;;;23.66;65.10
11830;BME280;5972;42.134;24.718;2022-08-02T02:41:55;99206.78;;;23.53;65.07
11830;BME280;5972;42.134;24.718;2022-08-02T02:44:26;99215.88;;;23.67;64.67
11830;BME280;5972;42.134;24.718;2022-08-02T02:46:54;99221.50;;;23.63;64.99
11830;BME280;5972;42.134;24.718;2022-08-02T02:49:23;99217.06;;;23.53;65.26
11830;BME280;5972;42.134;24.718;2022-08-02T02:51:51;99219.38;;;23.54;64.93
11830;BME280;5972;42.134;24.718;2022-08-02T02:54:19;99220.59;;;23.53;64.65
11830;BME280;5972;42.134;24.718;2022-08-02T02:56:46;99212.22;;;23.57;65.06
11830;BME280;5972;42.134;24.718;2022-08-02T02:59:14;99182.28;;;23.27;65.95
11830;BME280;5972;42.134;24.718;2022-08-02T03:01:42;99213.91;;;23.38;66.75
11830;BME280;5972;42.134;24.718;2022-08-02T03:04:13;99221.75;;;23.40;67.37
11830;BME280;5972;42.134;24.718;2022-08-02T03:06:42;99224.28;;;23.34;68.67
11830;BME280;5972;42.134;24.718;2022-08-02T03:09:09;99218.16;;;23.27;68.86
11830;BME280;5972;42.134;24.718;2022-08-02T03:11:37;99220.88;;;23.14;70.26
11830;BME280;5972;42.134;24.718;2022-08-02T03:14:08;99223.75;;;23.10;70.97
11830;BME280;5972;42.134;24.718;2022-08-02T03:16:41;99236.16;;;23.02;72.24
11830;BME280;5972;42.134;24.718;2022-08-02T03:19:08;99237.91;;;22.96;72.67
11830;BME280;5972;42.134;24.718;2022-08-02T03:21:35;99236.44;;;22.92;74.39
11830;BME280;5972;42.134;24.718;2022-08-02T03:24:04;99228.53;;;22.94;74.71
11830;BME280;5972;42.134;24.718;2022-08-02T03:26:31;99235.00;;;22.87;75.55
11830;BME280;5972;42.134;24.718;2022-08-02T03:28:58;99232.75;;;22.82;76.14
11830;BME280;5972;42.134;24.718;2022-08-02T03:31:25;99227.25;;;22.82;77.12
11830;BME280;5972;42.134;24.718;2022-08-02T03:33:52;99232.22;;;22.87;77.21
11830;BME280;5972;42.134;24.718;2022-08-02T03:36:21;99224.38;;;22.86;78.12
11830;BME280;5972;42.134;24.718;2022-08-02T03:38:50;99231.63;;;22.96;77.67
11830;BME280;5972;42.134;24.718;2022-08-02T03:41:21;99241.31;;;23.16;76.71
11830;BME280;5972;42.134;24.718;2022-08-02T03:43:49;99235.88;;;23.29;74.88
11830;BME280;5972;42.134;24.718;2022-08-02T03:46:19;99226.25;;;23.34;73.82
11830;BME280;5972;42.134;24.718;2022-08-02T03:48:47;99240.69;;;23.54;72.60
11830;BME280;5972;42.134;24.718;2022-08-02T03:51:15;99224.38;;;23.59;71.10
11830;BME280;5972;42.134;24.718;2022-08-02T03:53:42;99237.91;;;23.83;69.56
11830;BME280;5972;42.134;24.718;2022-08-02T03:56:10;99256.59;;;24.04;67.64
11830;BME280;5972;42.134;24.718;2022-08-02T03:58:38;99255.66;;;24.23;66.20
11830;BME280;5972;42.134;24.718;2022-08-02T04:01:05;99248.13;;;24.36;63.97
11830;BME280;5972;42.134;24.718;2022-08-02T04:03:32;99203.88;;;24.36;62.58
11830;BME280;5972;42.134;24.718;2022-08-02T04:05:59;99255.38;;;24.94;60.83
11830;BME280;5972;42.134;24.718;2022-08-02T04:08:26;99238.81;;;25.03;58.79
11830;BME280;5972;42.134;24.718;2022-08-02T04:10:53;99251.00;;;25.40;56.67
11830;BME280;5972;42.134;24.718;2022-08-02T04:13:38;99239.75;;;25.56;55.08
11830;BME280;5972;42.134;24.718;2022-08-02T04:16:09;99251.50;;;25.91;53.78
11830;BME280;5972;42.134;24.718;2022-08-02T04:18:45;99250.78;;;26.30;51.90
11830;BME280;5972;42.134;24.718;2022-08-02T04:21:16;99257.94;;;26.59;50.73
11830;BME280;5972;42.134;24.718;2022-08-02T04:23:46;99230.81;;;26.54;50.12
11830;BME280;5972;42.134;24.718;2022-08-02T04:26:14;99258.41;;;27.24;48.77
11830;BME280;5972;42.134;24.718;2022-08-02T04:28:43;99260.84;;;27.59;47.28
11830;BME280;5972;42.134;24.718;2022-08-02T04:31:10;99267.59;;;28.69;44.58
11830;BME280;5972;42.134;24.718;2022-08-02T04:33:37;99260.91;;;30.70;39.53
11830;BME280;5972;42.134;24.718;2022-08-02T04:36:05;99259.94;;;32.91;34.77
11830;BME280;5972;42.134;24.718;2022-08-02T04:38:32;99266.63;;;34.47;32.06
11830;BME280;5972;42.134;24.718;2022-08-02T04:40:59;99265.91;;;35.68;29.94
11830;BME280;5972;42.134;24.718;2022-08-02T04:43:26;99271.59;;;36.52;28.74
11830;BME280;5972;42.134;24.718;2022-08-02T04:45:54;99284.63;;;37.65;26.97
11830;BME280;5972;42.134;24.718;2022-08-02T04:48:22;99275.91;;;38.14;26.42
11830;BME280;5972;42.134;24.718;2022-08-02T04:50:49;99282.88;;;38.97;25.34
11830;BME280;5972;42.134;24.718;2022-08-02T04:53:17;99283.50;;;39.64;24.80
11830;BME280;5972;42.134;24.718;2022-08-02T04:55:44;99288.34;;;39.89;23.93
11830;BME280;5972;42.134;24.718;2022-08-02T04:58:11;99280.94;;;40.77;23.12
11830;BME280;5972;42.134;24.718;2022-08-02T05:00:38;99283.06;;;41.20;22.98
11830;BME280;5972;42.134;24.718;2022-08-02T05:03:06;99287.34;;;41.49;22.56
11830;BME280;5972;42.134;24.718;2022-08-02T05:05:33;99291.81;;;41.88;22.33
11830;BME280;5972;42.134;24.718;2022-08-02T05:08:09;99287.88;;;42.37;21.54
11830;BME280;5972;42.134;24.718;2022-08-02T05:10:40;99288.41;;;42.58;21.22
11830;BME280;5972;42.134;24.718;2022-08-02T05:13:07;99284.63;;;42.71;21.14
11830;BME280;5972;42.134;24.718;2022-08-02T05:15:34;99284.94;;;42.98;20.41
11830;BME280;5972;42.134;24.718;2022-08-02T05:18:01;99297.75;;;43.29;20.03
11830;BME280;5972;42.134;24.718;2022-08-02T05:20:31;99296.50;;;43.55;19.78
11830;BME280;5972;42.134;24.718;2022-08-02T05:22:58;99303.34;;;43.84;19.24
11830;BME280;5972;42.134;24.718;2022-08-02T05:25:25;99298.13;;;43.98;18.67
11830;BME280;5972;42.134;24.718;2022-08-02T05:27:55;99300.31;;;43.90;18.71
11830;BME280;5972;42.134;24.718;2022-08-02T05:30:26;99307.06;;;44.02;18.77
11830;BME280;5972;42.134;24.718;2022-08-02T05:32:55;99304.59;;;44.48;17.79
11830;BME280;5972;42.134;24.718;2022-08-02T05:35:23;99302.63;;;44.93;17.63
11830;BME280;5972;42.134;24.718;2022-08-02T05:37:52;99303.47;;;45.20;17.53
11830;BME280;5972;42.134;24.718;2022-08-02T05:40:19;99299.19;;;45.29;17.38
11830;BME280;5972;42.134;24.718;2022-08-02T05:42:46;99306.72;;;45.34;16.83
11830;BME280;5972;42.134;24.718;2022-08-02T05:45:13;99300.88;;;45.14;17.10
11830;BME280;5972;42.134;24.718;2022-08-02T05:47:40;99300.19;;;45.94;16.85
11830;BME280;5972;42.134;24.718;2022-08-02T05:50:08;99304.34;;;45.84;16.64
11830;BME280;5972;42.134;24.718;2022-08-02T05:52:45;99300.22;;;46.04;16.56
11830;BME280;5972;42.134;24.718;2022-08-02T05:55:21;99296.19;;;46.07;16.63
11830;BME280;5972;42.134;24.718;2022-08-02T05:57:51;99307.75;;;45.73;16.87
11830;BME280;5972;42.134;24.718;2022-08-02T06:00:22;99303.84;;;46.41;16.48
11830;BME280;5972;42.134;24.718;2022-08-02T06:02:58;99314.81;;;45.72;16.70
11830;BME280;5972;42.134;24.718;2022-08-02T06:05:34;99315.88;;;45.49;16.54
11830;BME280;5972;42.134;24.718;2022-08-02T06:08:05;99318.19;;;46.14;16.33
11830;BME280;5972;42.134;24.718;2022-08-02T06:10:36;99308.94;;;45.70;16.25
11830;BME280;5972;42.134;24.718;2022-08-02T06:13:07;99315.88;;;45.76;16.63
11830;BME280;5972;42.134;24.718;2022-08-02T06:15:35;99314.97;;;45.74;16.58
11830;BME280;5972;42.134;24.718;2022-08-02T06:18:03;99318.31;;;45.53;16.81
11830;BME280;5972;42.134;24.718;2022-08-02T06:20:31;99313.59;;;44.62;17.50
11830;BME280;5972;42.134;24.718;2022-08-02T06:23:03;99315.94;;;42.79;18.70
11830;BME280;5972;42.134;24.718;2022-08-02T06:25:31;99322.00;;;40.55;20.71
11830;BME280;5972;42.134;24.718;2022-08-02T06:28:01;99327.25;;;39.29;21.96
11830;BME280;5972;42.134;24.718;2022-08-02T06:30:30;99328.53;;;37.98;22.84
11830;BME280;5972;42.134;24.718;2022-08-02T06:32:58;99323.25;;;37.14;23.84
11830;BME280;5972;42.134;24.718;2022-08-02T06:35:31;99324.75;;;36.42;24.71
11830;BME280;5972;42.134;24.718;2022-08-02T06:38:00;99321.38;;;36.14;25.28
11830;BME280;5972;42.134;24.718;2022-08-02T06:40:30;99319.91;;;35.72;25.81
11830;BME280;5972;42.134;24.718;2022-08-02T06:43:05;99328.06;;;35.75;26.20
11830;BME280;5972;42.134;24.718;2022-08-02T06:45:36;99325.31;;;35.59;26.40
11830;BME280;5972;42.134;24.718;2022-08-02T06:48:04;99323.53;;;35.50;26.58
11830;BME280;5972;42.134;24.718;2022-08-02T06:50:31;99318.59;;;35.21;26.49
11830;BME280;5972;42.134;24.718;2022-08-02T06:52:58;99313.97;;;35.12;26.60
11830;BME280;5972;42.134;24.718;2022-08-02T06:55:26;99311.78;;;34.88;26.74
11830;BME280;5972;42.134;24.718;2022-08-02T06:57:53;99287.06;;;34.48;27.17
11830;BME280;5972;42.134;24.718;2022-08-02T07:00:22;99315.13;;;34.59;27.97
11830;BME280;5972;42.134;24.718;2022-08-02T07:02:49;99301.91;;;34.26;28.35
11830;BME280;5972;42.134;24.718;2022-08-02T07:05:16;99301.34;;;34.05;28.04
11830;BME280;5972;42.134;24.718;2022-08-02T07:07:43;99307.97;;;33.91;28.76
11830;BME280;5972;42.134;24.718;2022-08-02T07:10:10;99293.16;;;33.85;28.75
11830;BME280;5972;42.134;24.718;2022-08-02T07:12:41;99307.69;;;33.78;28.65
11830;BME280;5972;42.134;24.718;2022-08-02T07:15:08;99318.41;;;33.74;28.81
11830;BME280;5972;42.134;24.718;2022-08-02T07:17:38;99297.38;;;33.41;29.37
11830;BME280;5972;42.134;24.718;2022-08-02T07:20:06;99309.13;;;33.46;29.36
11830;BME280;5972;42.134;24.718;2022-08-02T07:22:34;99309.13;;;33.46;29.21
11830;BME280;5972;42.134;24.718;2022-08-02T07:25:01;99306.56;;;33.42;29.16
11830;BME280;5972;42.134;24.718;2022-08-02T07:27:28;99308.84;;;33.32;29.67
11830;BME280;5972;42.134;24.718;2022-08-02T07:29:55;99295.00;;;33.18;29.96
11830;BME280;5972;42.134;24.718;2022-08-02T07:32:23;99306.03;;;33.32;29.76
11830;BME280;5972;42.134;24.718;2022-08-02T07:34:52;99304.47;;;33.20;30.39
11830;BME280;5972;42.134;24.718;2022-08-02T07:37:20;99306.25;;;33.23;29.71
11830;BME280;5972;42.134;24.718;2022-08-02T07:39:47;99298.03;;;33.14;30.10
11830;BME280;5972;42.134;24.718;2022-08-02T07:42:14;99301.91;;;33.22;29.49
11830;BME280;5972;42.134;24.718;2022-08-02T07:44:41;99301.44;;;33.35;30.06
11830;BME280;5972;42.134;24.718;2022-08-02T07:47:08;99293.56;;;33.45;29.42
11830;BME280;5972;42.134;24.718;2022-08-02T07:49:35;99293.56;;;33.50;29.13
11830;BME280;5972;42.134;24.718;2022-08-02T07:52:03;99287.97;;;33.56;29.06
11830;BME280;5972;42.134;24.718;2022-08-02T07:54:30;99279.56;;;33.56;28.79
11830;BME280;5972;42.134;24.718;2022-08-02T07:56:57;99308.94;;;33.66;29.18
11830;BME280;5972;42.134;24.718;2022-08-02T07:59:25;99306.63;;;33.64;29.78
11830;BME280;5972;42.134;24.718;2022-08-02T08:01:52;99305.63;;;33.73;29.03
11830;BME280;5972;42.134;24.718;2022-08-02T08:04:19;99301.81;;;33.70;28.91
11830;BME280;5972;42.134;24.718;2022-08-02T08:06:46;99297.16;;;33.51;29.26
11830;BME280;5972;42.134;24.718;2022-08-02T08:09:17;99292.00;;;33.27;29.34
11830;BME280;5972;42.134;24.718;2022-08-02T08:11:44;99309.34;;;33.36;29.62
11830;BME280;5972;42.134;24.718;2022-08-02T08:14:11;99303.28;;;33.44;30.05
11830;BME280;5972;42.134;24.718;2022-08-02T08:16:38;99299.97;;;33.56;29.66
11830;BME280;5972;42.134;24.718;2022-08-02T08:19:05;99293.88;;;33.63;28.97
11830;BME280;5972;42.134;24.718;2022-08-02T08:21:32;99304.81;;;33.61;28.97
11830;BME280;5972;42.134;24.718;2022-08-02T08:24:00;99306.34;;;33.57;28.88
11830;BME280;5972;42.134;24.718;2022-08-02T08:26:29;99302.69;;;33.28;28.97
11830;BME280;5972;42.134;24.718;2022-08-02T08:28:56;99312.34;;;33.22;29.94
11830;BME280;5972;42.134;24.718;2022-08-02T08:31:23;99319.06;;;33.41;30.05
11830;BME280;5972;42.134;24.718;2022-08-02T08:33:50;99304.00;;;33.38;30.01
11830;BME280;5972;42.134;24.718;2022-08-02T08:36:17;99305.84;;;33.58;29.17
11830;BME280;5972;42.134;24.718;2022-08-02T08:38:45;99311.03;;;33.88;29.48
11830;BME280;5972;42.134;24.718;2022-08-02T08:41:14;99307.22;;;34.13;28.17
11830;BME280;5972;42.134;24.718;2022-08-02T08:43:42;99315.34;;;33.89;28.74
11830;BME280;5972;42.134;24.718;2022-08-02T08:46:10;99303.09;;;33.69;28.25
11830;BME280;5972;42.134;24.718;2022-08-02T08:48:45;99311.47;;;33.58;28.74
11830;BME280;5972;42.134;24.718;2022-08-02T08:51:15;99307.38;;;33.59;28.71
11830;BME280;5972;42.134;24.718;2022-08-02T08:53:47;99306.88;;;33.66;28.59
11830;BME280;5972;42.134;24.718;2022-08-02T08:56:15;99309.22;;;33.85;28.85
11830;BME280;5972;42.134;24.718;2022-08-02T08:58:44;99294.97;;;34.05;28.87
11830;BME280;5972;42.134;24.718;2022-08-02T09:01:13;99300.34;;;34.25;28.03
11830;BME280;5972;42.134;24.718;2022-08-02T09:03:41;99299.31;;;34.28;27.70
11830;BME280;5972;42.134;24.718;2022-08-02T09:06:08;99295.75;;;34.22;28.39
11830;BME280;5972;42.134;24.718;2022-08-02T09:08:35;99295.75;;;34.33;27.61
11830;BME280;5972;42.134;24.718;2022-08-02T09:11:11;99287.31;;;34.33;27.79
11830;BME280;5972;42.134;24.718;2022-08-02T09:13:38;99298.50;;;34.72;27.49
11830;BME280;5972;42.134;24.718;2022-08-02T09:16:15;99252.53;;;34.58;27.14
11830;BME280;5972;42.134;24.718;2022-08-02T09:18:43;99286.47;;;34.88;27.34
11830;BME280;5972;42.134;24.718;2022-08-02T09:21:11;99285.97;;;34.84;27.33
11830;BME280;5972;42.134;24.718;2022-08-02T09:23:40;99289.00;;;34.92;27.19
11830;BME280;5972;42.134;24.718;2022-08-02T09:26:09;99280.56;;;34.97;27.00
11830;BME280;5972;42.134;24.718;2022-08-02T09:28:39;99268.88;;;34.82;27.20
11830;BME280;5972;42.134;24.718;2022-08-02T09:31:08;99286.59;;;35.18;27.31
11830;BME280;5972;42.134;24.718;2022-08-02T09:33:38;99274.31;;;35.27;27.45
11830;BME280;5972;42.134;24.718;2022-08-02T09:36:08;99273.47;;;35.43;26.96
11830;BME280;5972;42.134;24.718;2022-08-02T09:38:37;99254.00;;;35.45;26.45
11830;BME280;5972;42.134;24.718;2022-08-02T09:41:05;99279.47;;;35.69;26.47
11830;BME280;5972;42.134;24.718;2022-08-02T09:43:40;99281.09;;;35.48;26.53
11830;BME280;5972;42.134;24.718;2022-08-02T09:46:14;99284.53;;;35.30;27.52
11830;BME280;5972;42.134;24.718;2022-08-02T09:48:53;99286.22;;;34.86;27.55
11830;BME280;5972;42.134;24.718;2022-08-02T09:51:22;99261.00;;;34.42;27.72
11830;BME280;5972;42.134;24.718;2022-08-02T09:53:51;99273.97;;;34.78;27.94
11830;BME280;5972;42.134;24.718;2022-08-02T09:56:19;99277.50;;;34.90;27.94
11830;BME280;5972;42.134;24.718;2022-08-02T09:58:47;99258.53;;;35.07;27.44
11830;BME280;5972;42.134;24.718;2022-08-02T10:01:16;99270.84;;;34.98;27.26
11830;BME280;5972;42.134;24.718;2022-08-02T10:03:54;99257.13;;;34.73;27.51
11830;BME280;5972;42.134;24.718;2022-08-02T10:06:21;99267.44;;;34.20;28.37
11830;BME280;5972;42.134;24.718;2022-08-02T10:08:49;99272.88;;;33.25;30.03
11830;BME280;5972;42.134;24.718;2022-08-02T10:11:18;99266.81;;;32.90;30.05
11830;BME280;5972;42.134;24.718;2022-08-02T10:13:45;99263.56;;;33.03;30.39
11830;BME280;5972;42.134;24.718;2022-08-02T10:16:14;99265.69;;;33.19;30.20
11830;BME280;5972;42.134;24.718;2022-08-02T10:18:41;99248.41;;;33.31;30.60
11830;BME280;5972;42.134;24.718;2022-08-02T10:21:14;99262.69;;;33.45;29.87
11830;BME280;5972;42.134;24.718;2022-08-02T10:23:45;99265.81;;;33.63;29.84
11830;BME280;5972;42.134;24.718;2022-08-02T10:26:16;99241.09;;;33.73;29.39
11830;BME280;5972;42.134;24.718;2022-08-02T10:28:45;99258.09;;;33.36;30.20
11830;BME280;5972;42.134;24.718;2022-08-02T10:31:18;99255.63;;;33.66;29.58
11830;BME280;5972;42.134;24.718;2022-08-02T10:33:46;99255.19;;;33.08;30.12
11830;BME280;5972;42.134;24.718;2022-08-02T10:36:17;99256.34;;;33.55;29.51
11830;BME280;5972;42.134;24.718;2022-08-02T10:38:45;99259.75;;;34.04;29.05
11830;BME280;5972;42.134;24.718;2022-08-02T10:41:12;99258.19;;;34.53;28.49
11830;BME280;5972;42.134;24.718;2022-08-02T10:43:41;99244.31;;;34.88;27.82
11830;BME280;5972;42.134;24.718;2022-08-02T10:46:22;99252.38;;;35.14;27.92
11830;BME280;5972;42.134;24.718;2022-08-02T10:49:04;99238.47;;;35.38;26.99
11830;BME280;5972;42.134;24.718;2022-08-02T10:51:56;99234.81;;;34.97;28.27
11830;BME280;5972;42.134;24.718;2022-08-02T10:54:24;99236.63;;;34.89;28.19
11830;BME280;5972;42.134;24.718;2022-08-02T10:56:54;99232.53;;;34.84;28.18
11830;BME280;5972;42.134;24.718;2022-08-02T10:59:26;99249.13;;;34.99;27.77
11830;BME280;5972;42.134;24.718;2022-08-02T11:01:55;99247.41;;;34.62;28.01
11830;BME280;5972;42.134;24.718;2022-08-02T11:07:20;99242.91;;;34.20;29.04
11830;BME280;5972;42.134;24.718;2022-08-02T11:09:56;99231.41;;;33.74;29.39
11830;BME280;5972;42.134;24.718;2022-08-02T11:12:25;99234.72;;;33.83;29.29
11830;BME280;5972;42.134;24.718;2022-08-02T11:14:59;99230.41;;;33.99;29.22
11830;BME280;5972;42.134;24.718;2022-08-02T11:17:50;99226.00;;;33.54;29.38
11830;BME280;5972;42.134;24.718;2022-08-02T11:20:18;99221.81;;;33.10;30.56
11830;BME280;5972;42.134;24.718;2022-08-02T11:22:48;99198.25;;;32.80;30.02
11830;BME280;5972;42.134;24.718;2022-08-02T11:25:29;99209.19;;;32.78;30.55
11830;BME280;5972;42.134;24.718;2022-08-02T11:28:07;99205.75;;;33.16;29.78
11830;BME280;5972;42.134;24.718;2022-08-02T11:30:35;99220.84;;;33.24;30.54
11830;BME280;5972;42.134;24.718;2022-08-02T11:33:02;99194.34;;;33.25;30.23
11830;BME280;5972;42.134;24.718;2022-08-02T11:35:36;99218.53;;;33.17;30.08
11830;BME280;5972;42.134;24.718;2022-08-02T11:38:15;99212.16;;;33.22;30.17
11830;BME280;5972;42.134;24.718;2022-08-02T11:40:43;99207.13;;;33.43;30.00
11830;BME280;5972;42.134;24.718;2022-08-02T11:43:18;99205.09;;;33.55;30.06
11830;BME280;5972;42.134;24.718;2022-08-02T11:45:45;99191.81;;;33.44;29.79
11830;BME280;5972;42.134;24.718;2022-08-02T11:48:12;99215.78;;;33.51;30.23
11830;BME280;5972;42.134;24.718;2022-08-02T11:50:39;99195.75;;;32.87;30.33
11830;BME280;5972;42.134;24.718;2022-08-02T11:53:14;99211.13;;;33.14;29.95
11830;BME280;5972;42.134;24.718;2022-08-02T11:55:41;99206.59;;;33.33;29.88
11830;BME280;5972;42.134;24.718;2022-08-02T11:58:09;99214.25;;;33.44;30.30
11830;BME280;5972;42.134;24.718;2022-08-02T12:00:37;99213.25;;;33.47;29.54
11830;BME280;5972;42.134;24.718;2022-08-02T12:03:05;99219.09;;;33.32;30.68
11830;BME280;5972;42.134;24.718;2022-08-02T12:05:32;99201.75;;;33.51;29.48
11830;BME280;5972;42.134;24.718;2022-08-02T12:07:59;99211.47;;;33.66;29.92
11830;BME280;5972;42.134;24.718;2022-08-02T12:10:28;99196.41;;;33.36;29.92
11830;BME280;5972;42.134;24.718;2022-08-02T12:12:56;99197.38;;;33.27;29.33
11830;BME280;5972;42.134;24.718;2022-08-02T12:15:34;99203.06;;;32.74;30.23
11830;BME280;5972;42.134;24.718;2022-08-02T12:18:03;99210.09;;;32.58;30.00
11830;BME280;5972;42.134;24.718;2022-08-02T12:20:51;99206.66;;;32.80;30.04
11830;BME280;5972;42.134;24.718;2022-08-02T12:23:18;99205.19;;;33.01;29.81
11830;BME280;5972;42.134;24.718;2022-08-02T12:25:58;99206.84;;;33.35;29.28
11830;BME280;5972;42.134;24.718;2022-08-02T12:28:25;99207.69;;;33.75;29.50
11830;BME280;5972;42.134;24.718;2022-08-02T12:30:55;99195.19;;;33.93;28.77
11830;BME280;5972;42.134;24.718;2022-08-02T12:33:23;99206.13;;;34.13;28.90
11830;BME280;5972;42.134;24.718;2022-08-02T12:35:50;99189.28;;;34.24;28.64
11830;BME280;5972;42.134;24.718;2022-08-02T12:38:17;99185.19;;;34.14;28.95
11830;BME280;5972;42.134;24.718;2022-08-02T12:40:46;99208.66;;;34.33;28.39
11830;BME280;5972;42.134;24.718;2022-08-02T12:43:18;99199.50;;;34.33;28.48
11830;BME280;5972;42.134;24.718;2022-08-02T12:45:48;99194.81;;;34.57;27.40
11830;BME280;5972;42.134;24.718;2022-08-02T12:48:16;99201.94;;;34.75;27.91
11830;BME280;5972;42.134;24.718;2022-08-02T12:50:55;99192.34;;;35.00;27.90
11830;BME280;5972;42.134;24.718;2022-08-02T12:53:30;99194.94;;;34.98;27.82
11830;BME280;5972;42.134;24.718;2022-08-02T12:56:00;99182.91;;;34.98;27.76
11830;BME280;5972;42.134;24.718;2022-08-02T12:58:27;99180.84;;;35.04;27.37
11830;BME280;5972;42.134;24.718;2022-08-02T13:00:56;99165.09;;;33.82;28.19
11830;BME280;5972;42.134;24.718;2022-08-02T13:03:24;99172.16;;;34.16;28.20
11830;BME280;5972;42.134;24.718;2022-08-02T13:05:51;99190.22;;;34.60;28.36
11830;BME280;5972;42.134;24.718;2022-08-02T13:08:18;99189.94;;;34.63;27.84
11830;BME280;5972;42.134;24.718;2022-08-02T13:10:45;99175.94;;;34.52;27.67
11830;BME280;5972;42.134;24.718;2022-08-02T13:13:13;99155.41;;;34.69;28.19
11830;BME280;5972;42.134;24.718;2022-08-02T13:15:40;99177.97;;;35.15;27.66